Time;durP1;ratioP1;P1;durP2;ratioP2;P2;SDS_P1;SDS_P2;PMS_P1;PMS_P2;Temp;Humidity;BMP_temperature;BMP_pressure;BME280_temperature;BME280_humidity;BME280_pressure;Samples;Min_cycle;Max_cycle;Signal;HPM_P1;HPM_P2
2023/12/10 00:00:20;;;;;;;3.27;2.07;;;;;;;;;;5049439;28;20202;-77
2023/12/10 00:02:47;;;;;;;5.43;2.53;;;;;;;;;;5050190;28;20240;-77
2023/12/10 00:05:14;;;;;;;6.87;2.73;;;;;;;;;;5049222;28;20213;-77
2023/12/10 00:07:41;;;;;;;5.87;2.27;;;;;;;;;;5046120;28;20267;-77
2023/12/10 00:10:10;;;;;;;2.87;2.27;;;;;;;;;;5043856;28;20225;-78
2023/12/10 00:12:37;;;;;;;5.23;2.50;;;;;;;;;;5048620;28;20642;-78
2023/12/10 00:15:04;;;;;;;3.90;1.83;;;;;;;;;;5049812;28;20218;-79
2023/12/10 00:17:31;;;;;;;6.07;2.20;;;;;;;;;;5045390;28;20233;-77
2023/12/10 00:19:59;;;;;;;8.10;2.23;;;;;;;;;;5050635;28;20210;-78
2023/12/10 00:22:26;;;;;;;9.27;2.60;;;;;;;;;;5050374;28;20648;-78
2023/12/10 00:24:53;;;;;;;3.80;2.13;;;;;;;;;;5050434;28;20260;-78
2023/12/10 00:27:21;;;;;;;6.93;2.53;;;;;;;;;;5049855;28;20234;-78
2023/12/10 00:29:48;;;;;;;13.10;2.93;;;;;;;;;;5050705;28;20259;-79
2023/12/10 00:32:14;;;;;;;4.00;2.67;;;;;;;;;;5050367;28;20591;-78
2023/12/10 00:34:41;;;;;;;13.60;2.77;;;;;;;;;;5050628;28;20251;-78
2023/12/10 00:37:08;;;;;;;10.73;3.23;;;;;;;;;;5050216;28;20312;-79
2023/12/10 00:39:37;;;;;;;10.73;3.93;;;;;;;;;;5050707;28;20289;-76
2023/12/10 00:42:04;;;;;;;7.83;3.03;;;;;;;;;;5050037;28;20734;-78
2023/12/10 00:44:33;;;;;;;7.30;3.33;;;;;;;;;;5050628;28;20218;-78
2023/12/10 00:47:00;;;;;;;18.60;3.70;;;;;;;;;;5050310;28;20295;-78
2023/12/10 00:49:27;;;;;;;13.87;3.60;;;;;;;;;;5050636;28;20206;-78
2023/12/10 00:51:54;;;;;;;5.60;2.20;;;;;;;;;;5049937;28;20234;-78
2023/12/10 00:54:21;;;;;;;15.50;2.73;;;;;;;;;;5050529;28;20222;-78
2023/12/10 00:56:48;;;;;;;8.20;3.07;;;;;;;;;;5049845;28;20651;-79
2023/12/10 00:59:15;;;;;;;12.93;2.73;;;;;;;;;;5050640;28;20228;-78
2023/12/10 01:01:43;;;;;;;14.67;3.37;;;;;;;;;;5047704;28;20226;-78
2023/12/10 01:04:10;;;;;;;8.13;3.07;;;;;;;;;;5049825;28;20267;-78
2023/12/10 01:06:37;;;;;;;12.00;3.37;;;;;;;;;;5049887;28;20284;-78
2023/12/10 01:09:05;;;;;;;8.63;2.90;;;;;;;;;;5050272;28;20206;-78
2023/12/10 01:11:32;;;;;;;7.50;3.30;;;;;;;;;;5049801;28;20254;-78
2023/12/10 01:14:01;;;;;;;18.57;3.93;;;;;;;;;;5050179;28;20233;-78
2023/12/10 01:16:29;;;;;;;21.60;4.17;;;;;;;;;;5051777;28;20237;-78
2023/12/10 01:18:58;;;;;;;13.63;3.70;;;;;;;;;;5054019;28;20227;-78
2023/12/10 01:21:25;;;;;;;10.57;3.03;;;;;;;;;;5053066;28;20283;-78
2023/12/10 01:23:54;;;;;;;16.40;4.03;;;;;;;;;;5053935;28;20214;-78
2023/12/10 01:26:21;;;;;;;11.47;3.47;;;;;;;;;;5053313;28;20233;-78
2023/12/10 01:28:48;;;;;;;9.83;2.87;;;;;;;;;;5053813;28;20229;-79
2023/12/10 01:31:15;;;;;;;6.87;2.80;;;;;;;;;;5053240;28;20230;-78
2023/12/10 01:33:42;;;;;;;11.93;3.20;;;;;;;;;;5053459;28;20222;-78
2023/12/10 01:36:21;;;;;;;18.63;3.90;;;;;;;;;;5053180;28;20299;-78
2023/12/10 01:38:48;;;;;;;9.80;2.83;;;;;;;;;;5053707;28;20236;-77
2023/12/10 01:41:16;;;;;;;11.03;2.60;;;;;;;;;;5052851;28;20234;-78
2023/12/10 01:43:44;;;;;;;10.10;3.13;;;;;;;;;;5053645;28;20743;-78
2023/12/10 01:46:11;;;;;;;4.70;1.67;;;;;;;;;;5052890;28;20719;-78
2023/12/10 01:48:38;;;;;;;13.13;3.27;;;;;;;;;;5053346;28;20264;-78
2023/12/10 01:51:08;;;;;;;9.27;3.07;;;;;;;;;;5052899;28;20229;-78
2023/12/10 01:53:36;;;;;;;15.17;3.67;;;;;;;;;;5053122;28;20206;-78
2023/12/10 01:56:05;;;;;;;12.97;3.70;;;;;;;;;;5052592;28;20233;-78
2023/12/10 01:58:32;;;;;;;4.77;2.00;;;;;;;;;;5053351;28;20237;-78
2023/12/10 02:01:00;;;;;;;11.60;3.10;;;;;;;;;;5050412;28;20278;-78
2023/12/10 02:03:28;;;;;;;11.70;3.87;;;;;;;;;;5051286;28;20206;-78
2023/12/10 02:05:56;;;;;;;15.80;4.27;;;;;;;;;;5046417;28;20226;-78
2023/12/10 02:08:23;;;;;;;10.53;3.23;;;;;;;;;;5050188;28;20206;-77
2023/12/10 02:10:51;;;;;;;9.87;2.70;;;;;;;;;;5051079;28;20317;-77
2023/12/10 02:13:18;;;;;;;8.67;2.83;;;;;;;;;;5052783;28;20216;-77
2023/12/10 02:15:45;;;;;;;14.83;3.77;;;;;;;;;;5052322;28;20241;-77
2023/12/10 02:18:12;;;;;;;14.83;3.57;;;;;;;;;;5052894;28;20230;-77
2023/12/10 02:20:40;;;;;;;10.97;3.53;;;;;;;;;;5048146;28;20235;-77
2023/12/10 02:23:09;;;;;;;11.87;3.13;;;;;;;;;;5046138;28;20203;-77
2023/12/10 02:25:38;;;;;;;12.83;3.83;;;;;;;;;;5045735;28;20230;-77
2023/12/10 02:28:06;;;;;;;11.70;3.30;;;;;;;;;;5049212;28;20739;-77
2023/12/10 02:30:33;;;;;;;9.60;2.90;;;;;;;;;;5051696;28;20234;-78
2023/12/10 02:33:00;;;;;;;8.83;3.03;;;;;;;;;;5052598;28;20555;-77
2023/12/10 02:35:27;;;;;;;5.80;3.20;;;;;;;;;;5050468;28;20244;-78
2023/12/10 02:37:54;;;;;;;14.87;3.73;;;;;;;;;;5052543;28;20222;-77
2023/12/10 02:40:21;;;;;;;9.87;3.57;;;;;;;;;;5051633;28;20206;-77
2023/12/10 02:42:50;;;;;;;9.30;2.90;;;;;;;;;;5051038;28;20202;-77
2023/12/10 02:45:17;;;;;;;11.77;3.70;;;;;;;;;;5051925;28;20198;-78
2023/12/10 02:47:44;;;;;;;21.10;3.60;;;;;;;;;;5047347;28;20253;-77
2023/12/10 02:50:11;;;;;;;10.37;2.97;;;;;;;;;;5049087;28;20206;-78
2023/12/10 02:52:38;;;;;;;5.43;2.30;;;;;;;;;;5050793;28;20217;-78
2023/12/10 02:55:06;;;;;;;16.33;3.77;;;;;;;;;;5050081;28;20225;-78
2023/12/10 02:57:33;;;;;;;15.47;3.73;;;;;;;;;;5051966;28;20229;-78
2023/12/10 03:00:02;;;;;;;8.03;3.47;;;;;;;;;;5051793;28;20210;-78
2023/12/10 03:02:29;;;;;;;16.67;3.60;;;;;;;;;;5051462;28;20226;-77
2023/12/10 03:04:56;;;;;;;17.53;4.53;;;;;;;;;;5050756;28;20198;-78
2023/12/10 03:07:23;;;;;;;16.07;3.97;;;;;;;;;;5051068;28;20649;-78
2023/12/10 03:09:50;;;;;;;15.63;3.50;;;;;;;;;;5049788;28;20213;-78
2023/12/10 03:12:17;;;;;;;13.53;2.53;;;;;;;;;;5051069;28;20226;-79
2023/12/10 03:14:44;;;;;;;10.77;3.37;;;;;;;;;;5050644;28;20291;-78
2023/12/10 03:17:12;;;;;;;17.00;3.70;;;;;;;;;;5051180;28;20303;-78
2023/12/10 03:19:40;;;;;;;14.73;3.37;;;;;;;;;;5049479;28;20217;-78
2023/12/10 03:22:07;;;;;;;10.93;2.83;;;;;;;;;;5047994;28;20225;-78
2023/12/10 03:24:34;;;;;;;4.90;1.93;;;;;;;;;;5051625;28;20216;-78
2023/12/10 03:27:01;;;;;;;10.13;3.43;;;;;;;;;;5050997;28;20299;-78
2023/12/10 03:29:28;;;;;;;6.47;2.60;;;;;;;;;;5051468;28;20198;-78
2023/12/10 03:31:55;;;;;;;7.90;2.90;;;;;;;;;;5050754;28;20237;-77
2023/12/10 03:34:25;;;;;;;8.43;2.50;;;;;;;;;;5038096;28;20225;-77
2023/12/10 03:36:52;;;;;;;11.63;2.40;;;;;;;;;;5051076;28;20238;-79
2023/12/10 03:39:18;;;;;;;7.27;2.83;;;;;;;;;;5050548;28;20215;-79
2023/12/10 03:41:46;;;;;;;5.67;2.20;;;;;;;;;;5050690;28;20240;-77
2023/12/10 03:44:13;;;;;;;9.07;3.33;;;;;;;;;;5049630;28;20206;-78
2023/12/10 03:46:40;;;;;;;1.83;1.67;;;;;;;;;;5050742;28;20287;-79
2023/12/10 03:49:07;;;;;;;7.40;2.40;;;;;;;;;;5051025;28;20210;-78
2023/12/10 03:51:35;;;;;;;5.93;1.80;;;;;;;;;;5046858;28;20233;-78
2023/12/10 03:54:02;;;;;;;7.27;2.20;;;;;;;;;;5051212;28;20224;-78
2023/12/10 03:56:29;;;;;;;8.33;2.43;;;;;;;;;;5046511;28;20309;-78
2023/12/10 03:58:57;;;;;;;4.90;2.23;;;;;;;;;;5047385;28;20210;-78
2023/12/10 04:01:24;;;;;;;7.73;2.40;;;;;;;;;;5050464;28;20222;-78
2023/12/10 04:03:51;;;;;;;11.93;4.13;;;;;;;;;;5049698;28;20614;-78
2023/12/10 04:06:18;;;;;;;5.63;1.63;;;;;;;;;;5048884;28;20264;-78
2023/12/10 04:08:46;;;;;;;3.70;2.40;;;;;;;;;;5050606;28;20221;-78
2023/12/10 04:11:13;;;;;;;4.80;2.33;;;;;;;;;;5050347;28;20241;-78
2023/12/10 04:13:40;;;;;;;4.67;1.93;;;;;;;;;;5047168;28;20211;-77
2023/12/10 04:16:08;;;;;;;3.30;2.00;;;;;;;;;;5048261;28;20280;-79
2023/12/10 04:18:37;;;;;;;11.77;2.90;;;;;;;;;;5050579;28;20268;-78
2023/12/10 04:21:04;;;;;;;9.17;2.67;;;;;;;;;;5045539;28;20238;-78
2023/12/10 04:23:31;;;;;;;4.30;2.07;;;;;;;;;;5046656;28;20216;-78
2023/12/10 04:25:59;;;;;;;3.80;2.37;;;;;;;;;;5046824;28;20234;-78
2023/12/10 04:28:26;;;;;;;8.57;2.70;;;;;;;;;;5044718;28;20202;-80
2023/12/10 04:30:53;;;;;;;9.33;3.03;;;;;;;;;;5050269;28;20233;-78
2023/12/10 04:33:20;;;;;;;3.23;1.60;;;;;;;;;;5050631;28;20264;-78
2023/12/10 04:35:47;;;;;;;4.17;2.00;;;;;;;;;;5048491;28;20822;-79
2023/12/10 04:38:14;;;;;;;5.30;2.53;;;;;;;;;;5050834;28;20222;-79
2023/12/10 04:40:43;;;;;;;6.67;2.47;;;;;;;;;;5049856;28;20606;-79
2023/12/10 04:43:11;;;;;;;6.10;2.43;;;;;;;;;;5050602;28;20234;-79
2023/12/10 04:45:38;;;;;;;6.93;2.30;;;;;;;;;;5045469;28;20312;-79
2023/12/10 04:48:05;;;;;;;6.60;2.10;;;;;;;;;;5048018;28;20222;-79
2023/12/10 04:50:32;;;;;;;13.57;2.80;;;;;;;;;;5050470;28;20241;-79
2023/12/10 04:53:00;;;;;;;4.27;2.10;;;;;;;;;;5054574;28;20209;-79
2023/12/10 04:55:27;;;;;;;11.17;2.93;;;;;;;;;;5053798;28;20234;-79
2023/12/10 04:57:54;;;;;;;5.60;2.13;;;;;;;;;;5054166;28;20226;-79
2023/12/10 05:00:22;;;;;;;4.97;2.30;;;;;;;;;;5054019;28;20206;-80
2023/12/10 05:02:49;;;;;;;2.77;1.90;;;;;;;;;;5051234;28;20552;-79
2023/12/10 05:05:17;;;;;;;5.07;2.30;;;;;;;;;;5053803;28;20699;-79
2023/12/10 05:07:44;;;;;;;4.93;2.47;;;;;;;;;;5051158;28;20295;-79
2023/12/10 05:10:11;;;;;;;8.67;2.60;;;;;;;;;;5053787;28;20206;-79
2023/12/10 05:12:38;;;;;;;7.30;2.50;;;;;;;;;;5051036;28;20676;-79
2023/12/10 05:15:06;;;;;;;8.50;2.50;;;;;;;;;;5053749;28;20239;-80
2023/12/10 05:17:34;;;;;;;6.73;2.53;;;;;;;;;;5050349;28;20312;-80
2023/12/10 05:20:02;;;;;;;9.37;2.97;;;;;;;;;;5049692;28;20202;-79
2023/12/10 05:22:29;;;;;;;4.40;2.17;;;;;;;;;;5045154;28;20237;-79
2023/12/10 05:24:56;;;;;;;8.37;2.40;;;;;;;;;;5054317;28;20575;-79
2023/12/10 05:27:23;;;;;;;11.07;3.00;;;;;;;;;;5052400;28;20234;-79
2023/12/10 05:29:50;;;;;;;8.07;2.77;;;;;;;;;;5048694;28;20608;-79
2023/12/10 05:32:17;;;;;;;6.80;2.63;;;;;;;;;;5053539;28;20233;-79
2023/12/10 05:34:45;;;;;;;10.17;2.73;;;;;;;;;;5048775;28;20215;-79
2023/12/10 05:37:12;;;;;;;6.83;2.53;;;;;;;;;;5052926;28;20233;-79
2023/12/10 05:39:39;;;;;;;8.53;2.43;;;;;;;;;;5047346;28;20210;-79
2023/12/10 05:42:07;;;;;;;3.30;2.00;;;;;;;;;;5052909;28;20233;-79
2023/12/10 05:44:34;;;;;;;7.33;2.47;;;;;;;;;;5053482;28;20206;-79
2023/12/10 05:47:02;;;;;;;10.63;2.87;;;;;;;;;;5052484;28;20234;-79
2023/12/10 05:49:29;;;;;;;6.87;2.60;;;;;;;;;;5053240;28;20213;-79
2023/12/10 05:51:57;;;;;;;5.43;2.17;;;;;;;;;;5053099;28;20614;-79
2023/12/10 05:54:24;;;;;;;6.50;2.23;;;;;;;;;;5053071;28;20260;-79
2023/12/10 05:56:51;;;;;;;7.57;2.37;;;;;;;;;;5052339;28;20284;-79
2023/12/10 05:59:18;;;;;;;16.90;4.27;;;;;;;;;;5053134;28;20202;-80
2023/12/10 06:01:45;;;;;;;7.30;3.03;;;;;;;;;;5052393;28;20238;-79
2023/12/10 06:04:13;;;;;;;11.07;2.40;;;;;;;;;;5052893;28;20256;-80
2023/12/10 06:06:40;;;;;;;5.63;2.60;;;;;;;;;;5052640;28;20229;-80
2023/12/10 06:09:09;;;;;;;5.37;2.47;;;;;;;;;;5052968;28;20206;-79
2023/12/10 06:11:36;;;;;;;6.07;2.80;;;;;;;;;;5051808;28;20288;-79
2023/12/10 06:14:03;;;;;;;14.30;3.77;;;;;;;;;;5052688;28;20252;-80
2023/12/10 06:16:30;;;;;;;4.33;2.37;;;;;;;;;;5051763;28;20233;-79
2023/12/10 06:18:57;;;;;;;16.07;2.77;;;;;;;;;;5052855;28;20202;-80
2023/12/10 06:21:24;;;;;;;14.60;3.03;;;;;;;;;;5052075;28;20280;-79
2023/12/10 06:23:51;;;;;;;7.57;2.93;;;;;;;;;;5052810;28;20236;-80
2023/12/10 06:26:20;;;;;;;9.53;2.67;;;;;;;;;;5051892;28;20284;-79
2023/12/10 06:28:47;;;;;;;6.90;2.47;;;;;;;;;;5051685;28;20743;-79
2023/12/10 06:31:14;;;;;;;5.37;2.40;;;;;;;;;;5052017;28;20280;-79
2023/12/10 06:33:42;;;;;;;7.87;2.60;;;;;;;;;;5052666;28;20276;-81
2023/12/10 06:36:10;;;;;;;6.03;2.23;;;;;;;;;;5050345;28;20313;-81
2023/12/10 06:38:37;;;;;;;8.43;2.00;;;;;;;;;;5052188;28;20238;-80
2023/12/10 06:41:04;;;;;;;3.57;1.97;;;;;;;;;;5051828;28;20288;-79
2023/12/10 06:43:32;;;;;;;4.20;2.30;;;;;;;;;;5052234;28;20221;-80
2023/12/10 06:45:59;;;;;;;11.27;2.70;;;;;;;;;;5048841;28;20226;-79
2023/12/10 06:48:26;;;;;;;6.13;2.27;;;;;;;;;;5041266;28;20213;-79
2023/12/10 06:50:53;;;;;;;5.73;2.80;;;;;;;;;;5051829;28;20671;-80
2023/12/10 06:53:21;;;;;;;2.57;1.77;;;;;;;;;;5052144;28;20213;-80
2023/12/10 06:55:48;;;;;;;14.10;3.13;;;;;;;;;;5051601;28;20692;-79
2023/12/10 06:58:15;;;;;;;7.97;2.40;;;;;;;;;;5052045;28;20221;-79
2023/12/10 07:00:44;;;;;;;9.77;3.47;;;;;;;;;;5050099;28;20225;-79
2023/12/10 07:03:11;;;;;;;4.63;2.27;;;;;;;;;;5050955;28;20206;-77
2023/12/10 07:05:38;;;;;;;6.23;2.93;;;;;;;;;;5048330;28;20230;-77
2023/12/10 07:08:05;;;;;;;8.57;3.43;;;;;;;;;;5051845;28;20234;-77
2023/12/10 07:10:32;;;;;;;6.37;2.63;;;;;;;;;;5051354;28;20231;-77
2023/12/10 07:13:00;;;;;;;16.03;3.03;;;;;;;;;;5051049;28;20588;-76
2023/12/10 07:15:27;;;;;;;9.33;2.87;;;;;;;;;;5051117;28;20291;-77
2023/12/10 07:17:55;;;;;;;5.27;2.77;;;;;;;;;;5051589;28;20240;-77
2023/12/10 07:20:22;;;;;;;10.43;2.93;;;;;;;;;;5046315;28;20262;-76
2023/12/10 07:22:49;;;;;;;8.50;2.90;;;;;;;;;;5051758;28;20263;-76
2023/12/10 07:25:18;;;;;;;7.77;2.57;;;;;;;;;;5051259;28;20316;-77
2023/12/10 07:27:45;;;;;;;13.80;4.00;;;;;;;;;;5049450;28;20283;-76
2023/12/10 07:30:13;;;;;;;7.70;2.70;;;;;;;;;;5050957;28;20692;-76
2023/12/10 07:32:40;;;;;;;12.93;2.40;;;;;;;;;;5051248;28;20612;-76
2023/12/10 07:35:08;;;;;;;8.17;2.73;;;;;;;;;;5051147;28;20255;-77
2023/12/10 07:37:35;;;;;;;11.73;3.10;;;;;;;;;;5051390;28;20230;-83
2023/12/10 07:40:02;;;;;;;7.47;2.93;;;;;;;;;;5051481;28;20210;-77
2023/12/10 07:42:29;;;;;;;5.93;2.23;;;;;;;;;;5050836;28;20238;-76
2023/12/10 07:44:56;;;;;;;9.33;2.87;;;;;;;;;;5051224;28;20259;-76
2023/12/10 07:47:23;;;;;;;11.03;2.63;;;;;;;;;;5050685;28;20242;-76
2023/12/10 07:49:50;;;;;;;5.60;2.53;;;;;;;;;;5050955;28;20223;-76
2023/12/10 07:52:19;;;;;;;6.83;2.70;;;;;;;;;;5050908;28;20665;-76
2023/12/10 07:54:47;;;;;;;6.93;2.70;;;;;;;;;;5051221;28;20292;-77
2023/12/10 07:57:14;;;;;;;7.03;3.00;;;;;;;;;;5050616;28;20230;-77
2023/12/10 07:59:41;;;;;;;3.20;2.20;;;;;;;;;;5050872;28;20202;-76
2023/12/10 08:02:08;;;;;;;8.13;3.27;;;;;;;;;;5050724;28;20226;-77
2023/12/10 08:04:35;;;;;;;14.37;3.03;;;;;;;;;;5050669;28;20683;-76
2023/12/10 08:07:02;;;;;;;3.93;1.90;;;;;;;;;;5050702;28;20233;-76
2023/12/10 08:09:30;;;;;;;10.33;2.83;;;;;;;;;;5050759;28;20209;-76
2023/12/10 08:11:59;;;;;;;8.67;2.90;;;;;;;;;;5050438;28;20236;-77
2023/12/10 08:14:27;;;;;;;9.20;3.60;;;;;;;;;;5050884;28;20263;-78
2023/12/10 08:16:54;;;;;;;5.43;2.63;;;;;;;;;;5050972;28;20257;-78
2023/12/10 08:19:21;;;;;;;8.10;2.80;;;;;;;;;;5050952;28;20572;-77
2023/12/10 08:21:48;;;;;;;6.23;3.20;;;;;;;;;;5047612;28;20299;-77
2023/12/10 08:24:15;;;;;;;4.53;2.60;;;;;;;;;;5043297;28;20612;-77
2023/12/10 08:26:44;;;;;;;9.30;2.30;;;;;;;;;;5050202;28;20295;-77
2023/12/10 08:29:11;;;;;;;4.23;2.40;;;;;;;;;;5049880;28;20198;-77
2023/12/10 08:31:38;;;;;;;10.57;2.70;;;;;;;;;;5046217;28;20575;-77
2023/12/10 08:34:05;;;;;;;10.93;3.37;;;;;;;;;;5052350;28;20259;-78
2023/12/10 08:36:32;;;;;;;8.27;2.93;;;;;;;;;;5054032;28;20692;-77
2023/12/10 08:38:59;;;;;;;10.87;3.53;;;;;;;;;;5051949;28;20259;-77
2023/12/10 08:41:26;;;;;;;7.50;2.70;;;;;;;;;;5051355;28;20253;-77
2023/12/10 08:43:54;;;;;;;2.83;1.90;;;;;;;;;;5049369;28;20255;-76
2023/12/10 08:46:21;;;;;;;4.93;2.50;;;;;;;;;;5049005;28;20230;-77
2023/12/10 08:48:48;;;;;;;4.83;2.63;;;;;;;;;;5052035;28;20207;-77
2023/12/10 08:51:15;;;;;;;10.43;2.70;;;;;;;;;;5053997;28;20226;-76
2023/12/10 08:53:42;;;;;;;13.47;2.70;;;;;;;;;;5048721;28;20209;-76
2023/12/10 08:56:10;;;;;;;3.60;2.20;;;;;;;;;;5051017;28;20719;-76
2023/12/10 08:58:37;;;;;;;4.73;2.23;;;;;;;;;;5048596;28;20228;-77
2023/12/10 09:01:06;;;;;;;9.13;3.67;;;;;;;;;;5054042;28;20275;-77
2023/12/10 09:03:34;;;;;;;7.73;2.13;;;;;;;;;;5054231;28;20233;-79
2023/12/10 09:06:01;;;;;;;8.00;2.50;;;;;;;;;;5053725;28;20230;-77
2023/12/10 09:08:29;;;;;;;5.07;2.43;;;;;;;;;;5054118;28;20285;-77
2023/12/10 09:10:56;;;;;;;7.37;2.90;;;;;;;;;;5053472;28;20667;-77
2023/12/10 09:13:23;;;;;;;4.37;2.50;;;;;;;;;;5053595;28;20214;-78
2023/12/10 09:15:50;;;;;;;8.23;2.87;;;;;;;;;;5053821;28;20640;-77
2023/12/10 09:18:19;;;;;;;6.87;2.30;;;;;;;;;;5053775;28;20226;-77
2023/12/10 09:20:46;;;;;;;9.87;3.23;;;;;;;;;;5053326;28;20238;-77
2023/12/10 09:23:13;;;;;;;6.20;2.53;;;;;;;;;;5052661;28;20206;-78
2023/12/10 09:25:40;;;;;;;4.80;2.30;;;;;;;;;;5053141;28;20222;-77
2023/12/10 09:28:07;;;;;;;8.40;2.30;;;;;;;;;;5053119;28;20272;-77
2023/12/10 09:30:34;;;;;;;9.17;3.10;;;;;;;;;;5052321;28;20226;-77
2023/12/10 09:33:01;;;;;;;5.60;2.40;;;;;;;;;;5053822;28;20202;-77
2023/12/10 09:35:29;;;;;;;8.47;2.87;;;;;;;;;;5050507;28;20235;-77
2023/12/10 09:37:56;;;;;;;13.27;3.13;;;;;;;;;;5048787;28;20636;-77
2023/12/10 09:40:23;;;;;;;8.00;2.57;;;;;;;;;;5051189;28;20645;-77
2023/12/10 09:42:50;;;;;;;5.60;2.23;;;;;;;;;;5051665;28;20205;-77
2023/12/10 09:45:17;;;;;;;4.93;2.23;;;;;;;;;;5047351;28;20731;-77
2023/12/10 09:47:45;;;;;;;10.63;2.80;;;;;;;;;;5051592;28;20222;-76
2023/12/10 09:50:12;;;;;;;9.87;2.37;;;;;;;;;;5051071;28;20209;-77
2023/12/10 09:52:41;;;;;;;5.87;2.33;;;;;;;;;;5049271;28;20202;-76
2023/12/10 09:55:09;;;;;;;13.17;3.23;;;;;;;;;;5049108;28;20202;-77
2023/12/10 09:57:36;;;;;;;5.90;2.53;;;;;;;;;;5050855;28;20233;-76
2023/12/10 10:00:03;;;;;;;6.47;2.53;;;;;;;;;;5052813;28;20676;-77
2023/12/10 10:02:33;;;;;;;6.13;2.30;;;;;;;;;;5053489;28;20594;-76
2023/12/10 10:05:02;;;;;;;9.57;2.57;;;;;;;;;;5049512;28;20252;-75
2023/12/10 10:07:30;;;;;;;5.13;1.67;;;;;;;;;;5049190;28;20236;-75
2023/12/10 10:09:58;;;;;;;9.30;2.77;;;;;;;;;;5053476;28;20289;-75
2023/12/10 10:12:30;;;;;;;10.73;2.63;;;;;;;;;;5052686;28;20230;-77
2023/12/10 10:14:57;;;;;;;9.73;2.60;;;;;;;;;;5051556;28;20198;-78
2023/12/10 10:17:27;;;;;;;6.17;3.30;;;;;;;;;;5052431;28;20230;-78
2023/12/10 10:19:55;;;;;;;8.77;2.73;;;;;;;;;;5053204;28;20284;-78
2023/12/10 10:22:22;;;;;;;4.37;1.93;;;;;;;;;;5052591;28;20228;-77
2023/12/10 10:24:49;;;;;;;5.37;2.17;;;;;;;;;;5052854;28;20256;-76
2023/12/10 10:27:18;;;;;;;7.03;2.40;;;;;;;;;;5052469;28;20225;-76
2023/12/10 10:29:44;;;;;;;7.50;2.40;;;;;;;;;;5052944;28;20320;-76
2023/12/10 10:32:14;;;;;;;8.37;2.47;;;;;;;;;;5052264;28;20229;-76
2023/12/10 10:34:42;;;;;;;3.63;2.40;;;;;;;;;;5049593;28;20214;-76
2023/12/10 10:37:09;;;;;;;5.83;2.77;;;;;;;;;;5047075;28;20230;-78
2023/12/10 10:39:37;;;;;;;7.53;2.40;;;;;;;;;;5048903;28;20336;-76
2023/12/10 10:42:07;;;;;;;7.10;2.77;;;;;;;;;;5049345;28;20582;-76
2023/12/10 10:44:36;;;;;;;4.57;2.33;;;;;;;;;;5052483;28;20209;-75
2023/12/10 10:47:06;;;;;;;13.10;3.10;;;;;;;;;;5052072;28;20226;-75
2023/12/10 10:49:33;;;;;;;13.03;3.10;;;;;;;;;;5051506;28;20256;-76
2023/12/10 10:52:01;;;;;;;9.97;3.20;;;;;;;;;;5052001;28;20264;-77
2023/12/10 10:54:28;;;;;;;5.97;2.10;;;;;;;;;;5052536;28;20206;-78
2023/12/10 10:56:56;;;;;;;7.30;2.17;;;;;;;;;;5051764;28;20237;-76
2023/12/10 10:59:29;;;;;;;9.97;3.83;;;;;;;;;;5052466;28;20206;-79
2023/12/10 11:01:59;;;;;;;9.93;2.50;;;;;;;;;;5051837;28;20237;-78
2023/12/10 11:04:26;;;;;;;4.93;2.10;;;;;;;;;;5052191;28;20209;-78
2023/12/10 11:06:53;;;;;;;8.23;2.50;;;;;;;;;;5051982;28;20264;-78
2023/12/10 11:09:20;;;;;;;7.00;2.50;;;;;;;;;;5052223;28;20580;-78
2023/12/10 11:11:47;;;;;;;5.57;2.80;;;;;;;;;;5044073;28;20233;-78
2023/12/10 11:14:21;;;;;;;6.37;2.70;;;;;;;;;;5050682;28;20210;-78
2023/12/10 11:16:52;;;;;;;6.73;2.60;;;;;;;;;;5042250;28;20233;-78
2023/12/10 11:19:22;;;;;;;9.20;2.47;;;;;;;;;;5051050;28;20209;-78
2023/12/10 11:21:50;;;;;;;3.50;2.50;;;;;;;;;;5049965;28;20218;-78
2023/12/10 11:24:17;;;;;;;5.80;2.40;;;;;;;;;;5050812;28;20362;-78
2023/12/10 11:26:44;;;;;;;9.13;2.93;;;;;;;;;;5049887;28;20256;-77
2023/12/10 11:29:12;;;;;;;6.00;2.30;;;;;;;;;;5045552;28;20206;-78
2023/12/10 11:31:39;;;;;;;6.73;2.77;;;;;;;;;;5041629;28;20237;-78
2023/12/10 11:34:06;;;;;;;5.90;2.10;;;;;;;;;;5042865;28;20667;-78
2023/12/10 11:36:34;;;;;;;8.33;2.37;;;;;;;;;;5045620;28;20237;-79
2023/12/10 11:39:02;;;;;;;6.67;1.80;;;;;;;;;;5041795;28;20218;-78
2023/12/10 11:41:29;;;;;;;10.90;3.00;;;;;;;;;;5043293;28;20226;-78
2023/12/10 11:43:56;;;;;;;9.70;3.17;;;;;;;;;;5044010;28;20207;-78
2023/12/10 11:46:23;;;;;;;11.87;2.67;;;;;;;;;;5040890;28;20632;-78
2023/12/10 11:48:51;;;;;;;10.53;2.67;;;;;;;;;;5045433;28;20206;-78
2023/12/10 11:51:18;;;;;;;7.03;2.20;;;;;;;;;;5041007;28;20229;-77
2023/12/10 11:53:47;;;;;;;8.47;2.47;;;;;;;;;;5043582;28;20271;-79
2023/12/10 11:56:15;;;;;;;7.40;3.30;;;;;;;;;;5042640;28;20752;-78
2023/12/10 11:58:45;;;;;;;8.97;3.07;;;;;;;;;;5043852;28;20659;-79
2023/12/10 12:01:12;;;;;;;7.80;2.53;;;;;;;;;;5041764;28;20225;-78
2023/12/10 12:03:39;;;;;;;6.27;2.83;;;;;;;;;;5043944;28;20206;-78
2023/12/10 12:06:07;;;;;;;7.77;2.20;;;;;;;;;;5042895;28;20265;-78
2023/12/10 12:08:34;;;;;;;11.73;2.53;;;;;;;;;;5043980;28;20203;-77
2023/12/10 12:11:03;;;;;;;8.97;2.63;;;;;;;;;;5044669;28;20599;-78
2023/12/10 12:13:30;;;;;;;5.60;2.43;;;;;;;;;;5038911;28;20629;-78
2023/12/10 12:15:57;;;;;;;2.80;2.00;;;;;;;;;;5041199;28;20795;-78
2023/12/10 12:18:25;;;;;;;6.33;2.60;;;;;;;;;;5042420;28;20218;-78
2023/12/10 12:20:52;;;;;;;8.80;2.20;;;;;;;;;;5041850;28;20308;-77
2023/12/10 12:23:19;;;;;;;7.07;2.50;;;;;;;;;;5042116;28;20213;-78
2023/12/10 12:25:46;;;;;;;2.50;1.50;;;;;;;;;;5044239;28;20878;-77
2023/12/10 12:28:15;;;;;;;3.03;1.77;;;;;;;;;;5049632;28;20268;-76
2023/12/10 12:30:42;;;;;;;5.63;2.20;;;;;;;;;;5049190;28;20229;-76
2023/12/10 12:33:09;;;;;;;5.93;3.20;;;;;;;;;;5049947;28;20206;-76
2023/12/10 12:35:36;;;;;;;8.37;3.57;;;;;;;;;;5048979;28;20237;-80
2023/12/10 12:38:03;;;;;;;6.67;2.50;;;;;;;;;;5049744;28;20225;-77
2023/12/10 12:40:30;;;;;;;8.33;2.63;;;;;;;;;;5049016;28;20237;-77
2023/12/10 12:42:57;;;;;;;8.80;2.67;;;;;;;;;;5047698;28;20198;-77
2023/12/10 12:45:26;;;;;;;5.43;2.63;;;;;;;;;;5041760;28;20230;-77
2023/12/10 12:47:53;;;;;;;4.00;2.27;;;;;;;;;;5041229;28;20230;-77
2023/12/10 12:50:20;;;;;;;9.73;3.73;;;;;;;;;;5048823;28;20615;-77
2023/12/10 12:52:47;;;;;;;9.53;2.93;;;;;;;;;;5041167;28;20206;-77
2023/12/10 12:55:15;;;;;;;9.27;3.17;;;;;;;;;;5049350;28;20202;-77
2023/12/10 12:57:43;;;;;;;4.43;2.10;;;;;;;;;;5047372;28;20229;-78
2023/12/10 13:00:11;;;;;;;5.17;1.90;;;;;;;;;;5044087;28;20209;-77
2023/12/10 13:02:40;;;;;;;6.53;2.87;;;;;;;;;;5048220;28;20210;-77
2023/12/10 13:05:07;;;;;;;5.27;2.27;;;;;;;;;;5047968;28;20210;-77
2023/12/10 13:07:34;;;;;;;10.20;2.33;;;;;;;;;;5049166;28;20724;-77
2023/12/10 13:10:02;;;;;;;5.53;2.27;;;;;;;;;;5049409;28;20210;-75
2023/12/10 13:12:31;;;;;;;9.53;2.73;;;;;;;;;;5043488;28;20281;-77
2023/12/10 13:14:58;;;;;;;8.03;2.53;;;;;;;;;;5053094;28;20202;-77
2023/12/10 13:17:25;;;;;;;8.13;2.67;;;;;;;;;;5051107;28;20654;-75
2023/12/10 13:19:54;;;;;;;6.03;2.10;;;;;;;;;;5052528;28;20305;-75
2023/12/10 13:22:21;;;;;;;7.67;2.47;;;;;;;;;;5051461;28;20234;-76
2023/12/10 13:24:48;;;;;;;6.47;3.03;;;;;;;;;;5037401;28;20264;-76
2023/12/10 13:27:16;;;;;;;8.47;2.63;;;;;;;;;;5052417;28;20782;-76
2023/12/10 13:29:43;;;;;;;6.10;2.53;;;;;;;;;;5050945;28;20308;-76
2023/12/10 13:32:10;;;;;;;5.83;2.50;;;;;;;;;;5046001;28;20233;-76
2023/12/10 13:34:37;;;;;;;7.57;2.50;;;;;;;;;;5047236;28;20217;-76
2023/12/10 13:37:06;;;;;;;7.37;2.83;;;;;;;;;;5047918;28;20238;-76
2023/12/10 13:39:33;;;;;;;5.40;2.20;;;;;;;;;;5049243;28;20271;-77
2023/12/10 13:42:00;;;;;;;6.20;2.67;;;;;;;;;;5046605;28;20303;-76
2023/12/10 13:44:26;;;;;;;7.40;2.93;;;;;;;;;;5052166;28;20256;-76
2023/12/10 13:46:53;;;;;;;5.37;2.47;;;;;;;;;;5051760;28;20237;-76
2023/12/10 13:49:20;;;;;;;3.53;2.20;;;;;;;;;;5051447;28;20268;-76
2023/12/10 13:51:47;;;;;;;4.63;1.77;;;;;;;;;;5043681;28;20238;-76
2023/12/10 13:54:16;;;;;;;5.40;2.13;;;;;;;;;;5044513;28;20627;-76
2023/12/10 13:56:43;;;;;;;5.47;2.10;;;;;;;;;;5050023;28;20226;-75
2023/12/10 13:59:10;;;;;;;3.97;2.07;;;;;;;;;;5052964;28;20226;-74
2023/12/10 14:01:37;;;;;;;5.40;2.23;;;;;;;;;;5051403;28;20260;-75
2023/12/10 14:04:04;;;;;;;5.27;2.50;;;;;;;;;;5042407;28;20255;-76
2023/12/10 14:06:31;;;;;;;4.37;1.97;;;;;;;;;;5051874;28;20234;-76
2023/12/10 14:08:58;;;;;;;3.67;2.00;;;;;;;;;;5052129;28;20209;-75
2023/12/10 14:11:27;;;;;;;7.33;3.03;;;;;;;;;;5051798;28;20662;-76
2023/12/10 14:13:54;;;;;;;7.30;2.40;;;;;;;;;;5052071;28;20218;-76
2023/12/10 14:16:21;;;;;;;7.33;2.47;;;;;;;;;;5048060;28;20237;-75
2023/12/10 14:18:49;;;;;;;10.10;2.73;;;;;;;;;;5051627;28;20393;-76
2023/12/10 14:21:16;;;;;;;4.03;2.73;;;;;;;;;;5051484;28;20225;-76
2023/12/10 14:23:43;;;;;;;2.80;1.97;;;;;;;;;;5051404;28;20213;-76
2023/12/10 14:26:10;;;;;;;6.23;2.07;;;;;;;;;;5055868;28;20226;-75
2023/12/10 14:28:38;;;;;;;11.47;2.70;;;;;;;;;;5054571;28;20208;-75
2023/12/10 14:31:05;;;;;;;9.03;3.57;;;;;;;;;;5051155;28;20267;-76
2023/12/10 14:33:32;;;;;;;12.97;3.30;;;;;;;;;;5051754;28;20213;-75
2023/12/10 14:35:59;;;;;;;9.27;3.50;;;;;;;;;;5050777;28;20234;-75
2023/12/10 14:38:26;;;;;;;11.10;2.93;;;;;;;;;;5051560;28;20226;-75
2023/12/10 14:40:53;;;;;;;10.50;3.53;;;;;;;;;;5050869;28;20244;-75